Time;durP1;ratioP1;P1;durP2;ratioP2;P2;SDS_P1;SDS_P2;PMS_P1;PMS_P2;Temp;Humidity;BMP_temperature;BMP_pressure;BME280_temperature;BME280_humidity;BME280_pressure;Samples;Min_cycle;Max_cycle;Signal;HPM_P1;HPM_P2
2021/04/01 00:01:01;;;;;;;34.90;32.92;;;21.70;99.90;;;;;;5096523;28;20062;-59
2021/04/01 00:03:28;;;;;;;34.28;32.45;;;21.70;99.90;;;;;;5096912;28;20393;-59
2021/04/01 00:05:56;;;;;;;31.73;29.90;;;21.70;99.90;;;;;;5096460;28;20024;-59
2021/04/01 00:08:23;;;;;;;32.60;30.70;;;21.50;99.90;;;;;;5096424;28;20052;-60
2021/04/01 00:10:51;;;;;;;30.85;29.20;;;21.80;99.90;;;;;;5094985;28;20024;-61
2021/04/01 00:13:18;;;;;;;30.58;28.73;;;22.00;99.90;;;;;;5096399;28;20028;-59
2021/04/01 00:15:46;;;;;;;28.30;26.83;;;22.10;99.90;;;;;;5096415;28;20027;-60
2021/04/01 00:18:17;;;;;;;29.90;28.35;;;22.30;99.90;;;;;;5096261;28;20569;-60
2021/04/01 00:20:47;;;;;;;;;;;22.40;99.90;;;;;;5096689;28;20131;-59
2021/04/01 00:23:14;;;;;;;28.60;27.05;;;22.80;99.90;;;;;;5096196;28;19911;-59
2021/04/01 00:25:42;;;;;;;25.77;24.55;;;23.00;99.90;;;;;;5096515;28;20020;-59
2021/04/01 00:28:09;;;;;;;24.88;23.60;;;23.00;99.90;;;;;;5096167;28;20028;-61
2021/04/01 00:30:37;;;;;;;23.58;22.38;;;23.20;99.90;;;;;;5096055;28;20020;-61
2021/04/01 00:33:05;;;;;;;23.40;22.02;;;23.30;99.90;;;;;;5096573;28;20020;-60
2021/04/01 00:35:32;;;;;;;21.58;20.00;;;23.40;99.90;;;;;;5095824;28;20111;-62
2021/04/01 00:38:00;;;;;;;19.42;18.38;;;23.20;99.90;;;;;;5096159;28;20123;-60
2021/04/01 00:40:28;;;;;;;18.50;17.45;;;23.40;99.90;;;;;;5094518;28;20085;-56
2021/04/01 00:42:55;;;;;;;17.52;16.45;;;23.50;99.90;;;;;;5094599;28;20031;-52
2021/04/01 00:45:23;;;;;;;14.85;13.95;;;23.50;99.90;;;;;;5096092;28;20421;-55
2021/04/01 00:47:53;;;;;;;15.13;14.13;;;23.20;99.90;;;;;;5095528;28;20504;-57
2021/04/01 00:50:24;;;;;;;15.90;14.68;;;23.30;99.90;;;;;;5095567;28;20519;-57
2021/04/01 00:52:51;;;;;;;13.55;12.75;;;23.60;99.90;;;;;;5095593;28;20024;-55
2021/04/01 00:55:19;;;;;;;12.60;11.32;;;23.60;99.90;;;;;;5095531;28;20065;-53
2021/04/01 00:57:50;;;;;;;12.30;11.40;;;23.40;99.90;;;;;;5095530;28;20440;-54
2021/04/01 01:00:22;;;;;;;12.20;11.40;;;23.60;99.90;;;;;;5094195;28;20389;-59
2021/04/01 01:02:50;;;;;;;12.40;11.60;;;23.50;99.90;;;;;;5095398;28;20024;-59
2021/04/01 01:05:19;;;;;;;10.77;10.00;;;23.90;99.90;;;;;;5095283;28;20401;-59
2021/04/01 01:07:47;;;;;;;11.60;10.85;;;24.10;99.90;;;;;;5095246;28;20028;-62
2021/04/01 01:10:21;;;;;;;10.50;9.80;;;24.20;99.90;;;;;;5095342;28;20021;-60
2021/04/01 01:12:49;;;;;;;10.45;9.70;;;24.50;99.90;;;;;;5095125;28;20028;-61
2021/04/01 01:15:17;;;;;;;9.63;8.88;;;24.80;99.90;;;;;;5095424;28;20501;-60
2021/04/01 01:17:44;;;;;;;8.65;8.15;;;24.80;99.90;;;;;;5094574;28;20111;-61
2021/04/01 01:20:12;;;;;;;9.00;8.50;;;24.50;99.90;;;;;;5095108;28;20498;-59
2021/04/01 01:22:41;;;;;;;8.30;7.90;;;24.20;99.90;;;;;;5094935;28;20512;-60
2021/04/01 01:25:11;;;;;;;9.48;8.88;;;24.30;99.90;;;;;;5093635;28;20050;-60
2021/04/01 01:27:39;;;;;;;8.57;8.10;;;24.40;99.90;;;;;;5095698;28;20045;-61
2021/04/01 01:30:13;;;;;;;9.18;8.50;;;24.50;99.90;;;;;;5094770;28;20024;-60
2021/04/01 01:32:45;;;;;;;8.70;8.20;;;24.60;99.90;;;;;;5094698;28;20361;-63
2021/04/01 01:35:18;;;;;;;8.27;7.70;;;24.50;99.90;;;;;;5094680;28;20099;-61
2021/04/01 01:38:03;;;;;;;9.05;8.45;;;24.50;99.90;;;;;;5094989;28;20546;-61
2021/04/01 01:40:32;;;;;;;8.57;8.00;;;24.70;99.90;;;;;;5095400;28;20368;-62
2021/04/01 01:43:02;;;;;;;8.27;7.68;;;24.60;99.90;;;;;;5094703;28;20126;-62
2021/04/01 01:45:31;;;;;;;8.52;7.82;;;24.20;99.90;;;;;;5094627;28;20077;-58
2021/04/01 01:47:59;;;;;;;8.60;8.00;;;24.00;99.90;;;;;;5094675;28;20040;-60
2021/04/01 01:50:29;;;;;;;8.52;8.02;;;24.40;99.90;;;;;;5094532;28;20055;-59
2021/04/01 01:52:57;;;;;;;8.63;8.00;;;24.40;99.90;;;;;;5094394;28;20480;-59
2021/04/01 01:55:25;;;;;;;8.25;7.72;;;24.80;99.90;;;;;;5094449;28;20020;-59
2021/04/01 01:57:53;;;;;;;7.65;7.25;;;24.70;99.90;;;;;;5094402;28;20024;-59
2021/04/01 02:00:29;;;;;;;8.27;7.60;;;24.60;99.90;;;;;;5094361;28;20526;-61
2021/04/01 02:02:59;;;;;;;6.10;5.65;;;25.00;99.90;;;;;;5094231;28;20099;-60
2021/04/01 02:05:27;;;;;;;7.75;7.15;;;25.00;99.90;;;;;;5094257;28;20103;-59
2021/04/01 02:07:56;;;;;;;7.75;7.18;;;25.10;99.90;;;;;;5094228;28;20054;-60
2021/04/01 02:10:27;;;;;;;7.35;6.85;;;25.30;99.90;;;;;;5094076;28;20040;-60
2021/04/01 02:12:55;;;;;;;7.90;7.20;;;25.20;99.90;;;;;;5094438;28;20020;-60
2021/04/01 02:15:34;;;;;;;7.30;6.80;;;25.40;99.90;;;;;;5094373;28;20031;-61
2021/04/01 02:18:16;;;;;;;7.72;7.22;;;25.40;99.90;;;;;;5094074;28;20035;-61
2021/04/01 02:20:48;;;;;;;7.60;7.00;;;25.30;99.90;;;;;;5093968;28;20135;-58
2021/04/01 02:23:27;;;;;;;7.93;7.45;;;25.50;99.90;;;;;;5093994;28;20473;-61
2021/04/01 02:25:56;;;;;;;7.68;6.97;;;25.40;99.90;;;;;;5094181;28;20113;-61
2021/04/01 02:28:26;;;;;;;7.50;6.90;;;25.70;99.90;;;;;;5094560;28;20024;-59
2021/04/01 02:30:55;;;;;;;;;;;25.80;99.90;;;;;;5094136;28;20028;-62
2021/04/01 02:33:25;;;;;;;7.10;6.60;;;25.90;99.90;;;;;;5093786;28;19908;-61
2021/04/01 02:35:53;;;;;;;7.32;6.80;;;25.60;99.90;;;;;;5093649;28;20028;-58
2021/04/01 02:38:21;;;;;;;7.85;6.82;;;25.50;99.90;;;;;;5093733;28;20028;-60
2021/04/01 02:40:49;;;;;;;7.85;7.15;;;25.50;99.90;;;;;;5093538;28;20127;-60
2021/04/01 02:43:26;;;;;;;7.70;7.10;;;25.70;99.90;;;;;;5093414;28;20024;-58
2021/04/01 02:45:54;;;;;;;7.32;6.75;;;25.50;99.90;;;;;;5093491;28;20020;-60
2021/04/01 02:48:21;;;;;;;7.50;6.95;;;25.00;99.90;;;;;;5093521;28;20028;-60
2021/04/01 02:50:49;;;;;;;7.53;6.80;;;24.80;99.90;;;;;;5093750;28;20026;-60
2021/04/01 02:53:16;;;;;;;7.50;7.00;;;24.70;99.90;;;;;;5094320;28;20031;-60
2021/04/01 02:55:44;;;;;;;7.32;6.85;;;24.80;99.90;;;;;;5093431;28;20465;-60
2021/04/01 02:58:11;;;;;;;7.10;6.70;;;24.80;99.90;;;;;;5093992;28;20024;-59
2021/04/01 03:00:38;;;;;;;7.60;7.00;;;24.80;99.90;;;;;;5093311;28;20020;-60
2021/04/01 03:05:43;;;;;;;7.30;6.80;;;25.00;99.90;;;;;;5092673;28;20024;-60
2021/04/01 03:08:11;;;;;;;7.55;6.80;;;24.90;99.90;;;;;;5093587;28;20380;-61
2021/04/01 03:10:39;;;;;;;10.55;9.65;;;25.00;99.90;;;;;;5093389;28;20029;-61
2021/04/01 03:13:06;;;;;;;10.30;9.60;;;25.10;99.90;;;;;;5093249;28;20483;-60
2021/04/01 03:15:34;;;;;;;10.77;9.80;;;25.00;99.90;;;;;;5093282;28;20016;-61
2021/04/01 03:18:01;;;;;;;7.93;6.90;;;25.00;99.90;;;;;;5093272;28;20408;-61
2021/04/01 03:20:28;;;;;;;8.20;7.40;;;25.00;99.90;;;;;;5091836;28;20033;-60
2021/04/01 03:22:56;;;;;;;7.10;6.70;;;24.90;99.90;;;;;;5093221;28;20419;-60
2021/04/01 03:25:23;;;;;;;6.78;6.40;;;24.90;99.90;;;;;;5093210;28;20396;-60
2021/04/01 03:27:50;;;;;;;6.35;5.93;;;25.00;99.90;;;;;;5093140;28;20039;-60
2021/04/01 03:30:18;;;;;;;6.90;6.43;;;24.90;99.90;;;;;;5093151;28;20110;-60
2021/04/01 03:32:47;;;;;;;6.25;5.65;;;24.80;99.90;;;;;;5093209;28;20377;-62
2021/04/01 03:35:18;;;;;;;7.50;6.80;;;24.60;99.90;;;;;;5093146;28;20035;-60
2021/04/01 03:37:48;;;;;;;7.20;6.50;;;24.20;99.90;;;;;;5093667;28;20078;-60
2021/04/01 03:40:16;;;;;;;7.43;6.90;;;24.30;99.90;;;;;;5092846;28;20128;-61
2021/04/01 03:42:44;;;;;;;6.22;5.68;;;24.90;99.90;;;;;;5093071;28;20028;-61
2021/04/01 03:45:16;;;;;;;7.40;6.80;;;25.20;99.90;;;;;;5091647;28;20120;-60
2021/04/01 03:47:47;;;;;;;6.72;6.43;;;25.50;99.90;;;;;;5092830;28;20039;-61
2021/04/01 03:50:15;;;;;;;7.18;6.68;;;25.60;99.90;;;;;;5093033;28;20020;-61
2021/04/01 03:52:43;;;;;;;7.70;7.03;;;25.70;99.90;;;;;;5092980;28;20024;-60
2021/04/01 03:57:43;;;;;;;6.60;6.10;;;25.50;99.90;;;;;;5092869;28;20028;-65
2021/04/01 04:00:15;;;;;;;7.38;6.70;;;25.70;99.90;;;;;;5092942;28;20039;-60
2021/04/01 04:05:39;;;;;;;7.55;6.88;;;25.80;99.90;;;;;;5092906;28;20101;-60
2021/04/01 04:10:55;;;;;;;10.00;9.30;;;25.60;99.90;;;;;;5092891;28;20028;-60
2021/04/01 04:16:18;;;;;;;8.35;7.65;;;25.40;99.90;;;;;;5021827;28;20033;-60
2021/04/01 04:18:46;;;;;;;9.02;8.38;;;25.30;99.90;;;;;;5096422;28;20016;-59
2021/04/01 04:21:15;;;;;;;9.50;9.00;;;25.30;99.90;;;;;;5096312;28;20020;-61
2021/04/01 04:23:46;;;;;;;8.98;8.45;;;25.50;99.90;;;;;;5096118;28;20032;-61
2021/04/01 04:26:17;;;;;;;10.07;9.35;;;25.60;99.90;;;;;;5094963;28;20048;-60
2021/04/01 04:28:45;;;;;;;10.85;9.85;;;25.70;99.90;;;;;;5095388;28;20028;-59
2021/04/01 04:31:12;;;;;;;9.02;8.43;;;25.60;99.90;;;;;;5096070;28;20024;-60
2021/04/01 04:33:40;;;;;;;8.88;8.30;;;25.80;99.90;;;;;;5096272;28;20028;-60
2021/04/01 04:36:08;;;;;;;8.90;8.07;;;25.80;99.90;;;;;;5096332;28;20023;-60
2021/04/01 04:38:36;;;;;;;8.90;8.30;;;25.70;99.90;;;;;;5095685;28;20384;-64
2021/04/01 04:41:04;;;;;;;9.05;8.23;;;25.60;99.90;;;;;;5096467;28;20024;-60
2021/04/01 04:43:33;;;;;;;8.75;8.18;;;25.60;99.90;;;;;;5095712;28;20060;-59
2021/04/01 04:46:00;;;;;;;9.40;8.80;;;25.70;99.90;;;;;;5095801;28;20027;-59
2021/04/01 04:48:28;;;;;;;6.60;6.18;;;25.60;99.90;;;;;;5095632;28;20032;-60
2021/04/01 04:50:56;;;;;;;7.30;6.70;;;25.60;99.90;;;;;;5096350;28;20103;-62
2021/04/01 04:53:24;;;;;;;9.45;6.80;;;25.70;99.90;;;;;;5095675;28;20016;-60
2021/04/01 04:56:07;;;;;;;6.65;6.10;;;25.50;99.90;;;;;;5095578;28;20123;-62
2021/04/01 04:58:51;;;;;;;10.40;7.00;;;25.20;99.90;;;;;;5094128;28;20020;-60
2021/04/01 05:06:55;;;;;;;7.05;6.55;;;24.80;99.90;;;;;;5095260;28;20035;-60
2021/04/01 05:09:22;;;;;;;7.45;6.95;;;24.60;99.90;;;;;;5092966;28;20020;-63
2021/04/01 05:11:50;;;;;;;7.68;7.07;;;24.60;99.90;;;;;;5095085;28;20358;-63
2021/04/01 05:14:18;;;;;;;7.35;6.65;;;24.60;99.90;;;;;;5095375;28;20081;-61
2021/04/01 05:16:45;;;;;;;7.28;6.75;;;24.60;99.90;;;;;;5095112;28;20017;-59
2021/04/01 05:19:14;;;;;;;8.52;7.57;;;24.60;99.90;;;;;;5095158;28;20021;-60
2021/04/01 05:21:55;;;;;;;8.80;8.02;;;24.60;99.90;;;;;;5094901;28;20028;-59
2021/04/01 05:24:26;;;;;;;8.05;7.40;;;24.50;99.90;;;;;;5094934;28;20401;-60
2021/04/01 05:29:32;;;;;;;7.50;7.00;;;24.40;99.90;;;;;;5094180;28;20503;-60
2021/04/01 05:32:03;;;;;;;7.68;7.15;;;24.40;99.90;;;;;;5094768;28;20056;-62
2021/04/01 05:34:30;;;;;;;7.68;7.10;;;24.20;99.90;;;;;;5094658;28;20037;-60
2021/04/01 05:36:59;;;;;;;7.55;7.10;;;24.00;99.90;;;;;;5094566;28;20032;-61
2021/04/01 05:39:29;;;;;;;6.82;6.32;;;24.10;99.90;;;;;;5094579;28;20118;-61
2021/04/01 05:41:59;;;;;;;8.23;7.10;;;24.20;99.90;;;;;;5094917;28;20020;-60
2021/04/01 05:52:48;;;;;;;9.10;8.60;;;24.20;99.90;;;;;;5094427;28;20446;-58
2021/04/01 06:03:34;;;;;;;9.32;8.63;;;23.70;99.90;;;;;;5094280;28;20099;-59
2021/04/01 06:06:09;;;;;;;8.35;7.65;;;23.70;99.90;;;;;;5093855;28;20028;-61
2021/04/01 06:08:46;;;;;;;7.85;6.95;;;23.60;99.90;;;;;;5094020;28;20502;-61
2021/04/01 06:11:15;;;;;;;6.88;6.47;;;23.60;99.90;;;;;;5093894;28;20024;-60
2021/04/01 06:14:07;;;;;;;7.78;7.22;;;23.50;99.90;;;;;;5093940;28;20024;-59
2021/04/01 06:16:46;;;;;;;8.07;7.63;;;23.30;99.90;;;;;;5093870;28;20024;-59
2021/04/01 06:19:17;;;;;;;8.77;8.32;;;23.50;99.90;;;;;;5094258;28;20119;-59
2021/04/01 06:21:47;;;;;;;8.60;8.10;;;23.40;99.90;;;;;;5093925;28;20035;-60
2021/04/01 06:24:27;;;;;;;6.10;5.60;;;23.40;99.90;;;;;;5092654;28;20031;-58
2021/04/01 06:27:15;;;;;;;7.32;6.95;;;23.30;99.90;;;;;;5093886;28;20055;-59
2021/04/01 06:30:37;;;;;;;10.30;9.60;;;23.30;99.90;;;;;;5093644;28;20381;-60
2021/04/01 06:32:39;;;;;;;9.57;8.90;;;23.20;99.90;;;;;;5075124;28;20043;-60
2021/04/01 06:35:21;;;;;;;7.55;7.05;;;23.20;99.90;;;;;;5093654;28;20027;-60
2021/04/01 06:40:52;;;;;;;9.45;8.82;;;23.00;99.90;;;;;;5076158;28;20036;-61
2021/04/01 06:43:21;;;;;;;8.60;8.10;;;22.80;99.90;;;;;;5093493;28;20048;-59
2021/04/01 06:45:53;;;;;;;8.70;8.02;;;22.80;99.90;;;;;;5093698;28;20586;-60
2021/04/01 06:48:27;;;;;;;9.10;8.50;;;22.80;99.90;;;;;;5094012;28;20127;-60
2021/04/01 06:51:09;;;;;;;9.32;8.68;;;22.60;99.90;;;;;;5093788;28;20480;-60
2021/04/01 06:53:55;;;;;;;9.70;8.88;;;22.50;99.90;;;;;;5093749;28;20058;-59
2021/04/01 06:56:28;;;;;;;8.98;8.30;;;22.50;99.90;;;;;;5093190;28;20055;-59
2021/04/01 07:02:42;;;;;;;8.52;7.97;;;22.30;99.90;;;;;;5086700;28;20040;-60
2021/04/01 07:04:43;;;;;;;8.50;7.90;;;22.20;99.90;;;;;;5082357;28;20101;-60
2021/04/01 07:07:14;;;;;;;7.65;7.15;;;22.10;99.90;;;;;;5093252;28;20028;-60
2021/04/01 07:10:10;;;;;;;7.70;7.15;;;22.00;99.90;;;;;;5091923;28;20020;-59
2021/04/01 07:12:41;;;;;;;9.13;8.43;;;22.00;99.90;;;;;;5093266;28;20020;-59
2021/04/01 07:15:18;;;;;;;10.35;9.45;;;21.90;99.90;;;;;;5093230;28;20097;-60
2021/04/01 07:17:54;;;;;;;8.27;7.82;;;21.80;99.90;;;;;;5093783;28;20122;-61
2021/04/01 07:48:23;;;;;;;11.35;10.65;;;20.80;99.90;;;;;;5092981;28;20032;-60
2021/04/01 07:50:51;;;;;;;11.55;11.05;;;20.70;99.90;;;;;;5093674;28;20016;-58
2021/04/01 07:53:26;;;;;;;12.68;12.00;;;20.60;99.90;;;;;;5097229;28;20032;-59
2021/04/01 08:04:33;;;;;;;15.10;14.20;;;20.20;99.90;;;;;;5054407;28;20025;-60
2021/04/01 08:07:14;;;;;;;15.55;14.55;;;20.10;99.90;;;;;;5081815;28;20119;-61
2021/04/01 08:09:44;;;;;;;15.70;14.90;;;20.00;99.90;;;;;;5096966;28;20023;-60
2021/04/01 08:12:24;;;;;;;17.20;16.40;;;20.00;99.90;;;;;;5096459;28;20422;-58
2021/04/01 08:15:16;;;;;;;18.05;16.95;;;19.90;99.90;;;;;;5096503;28;20387;-59
2021/04/01 08:20:23;;;;;;;19.17;18.15;;;19.70;99.90;;;;;;5096464;28;20020;-58
2021/04/01 08:23:11;;;;;;;19.95;18.88;;;19.70;99.90;;;;;;5095069;28;20039;-59
2021/04/01 08:25:44;;;;;;;21.08;19.90;;;19.70;99.90;;;;;;5096110;28;20489;-60
2021/04/01 08:35:59;;;;;;;24.13;22.63;;;19.60;99.90;;;;;;5096101;28;20389;-58
2021/04/01 08:38:27;;;;;;;24.42;22.92;;;19.50;99.90;;;;;;5095750;28;20046;-61
2021/04/01 08:40:57;;;;;;;24.90;23.40;;;19.50;99.90;;;;;;5096487;28;20024;-60
2021/04/01 08:43:57;;;;;;;24.63;23.23;;;19.50;99.90;;;;;;5096316;28;20385;-60
2021/04/01 08:46:52;;;;;;;25.60;24.10;;;19.50;99.90;;;;;;5096112;28;20107;-59
2021/04/01 08:50:02;;;;;;;26.38;24.80;;;19.40;99.90;;;;;;5095809;28;20476;-59
2021/04/01 08:52:55;;;;;;;26.67;25.10;;;19.40;99.90;;;;;;5013689;28;20026;-59
2021/04/01 08:55:47;;;;;;;26.60;25.17;;;19.30;99.90;;;;;;5013772;28;20080;-58
2021/04/01 08:58:37;;;;;;;29.02;27.20;;;19.20;99.90;;;;;;5081620;28;20028;-60
2021/04/01 09:01:18;;;;;;;29.23;27.42;;;19.10;99.90;;;;;;5095424;28;20035;-60
2021/04/01 09:03:51;;;;;;;29.83;27.77;;;19.10;99.90;;;;;;5094811;28;20058;-61
2021/04/01 09:06:24;;;;;;;29.25;27.45;;;19.00;99.90;;;;;;5095755;28;20028;-58
2021/04/01 09:09:22;;;;;;;30.38;28.27;;;19.00;99.90;;;;;;5095351;28;20370;-59
2021/04/01 09:11:58;;;;;;;29.58;27.77;;;18.90;99.90;;;;;;5089617;28;20385;-59
2021/04/01 09:14:33;;;;;;;29.67;27.85;;;18.90;99.90;;;;;;5095248;28;20107;-59
2021/04/01 09:17:08;;;;;;;30.08;28.02;;;18.90;99.90;;;;;;5093907;28;20504;-59
2021/04/01 09:19:38;;;;;;;31.48;29.27;;;18.80;99.90;;;;;;5095054;28;20031;-60
2021/04/01 09:22:27;;;;;;;31.73;29.70;;;18.70;99.90;;;;;;5095187;28;20538;-59
2021/04/01 09:24:58;;;;;;;30.08;27.98;;;18.70;99.90;;;;;;5094715;28;20035;-60
2021/04/01 09:27:26;;;;;;;30.58;28.50;;;18.60;99.90;;;;;;5094877;28;20024;-60
2021/04/01 09:30:10;;;;;;;31.13;29.10;;;18.60;99.90;;;;;;5095001;28;20021;-59
2021/04/01 09:32:42;;;;;;;31.67;29.38;;;18.60;99.90;;;;;;5094874;28;20091;-59
2021/04/01 09:35:11;;;;;;;31.73;29.63;;;18.60;99.90;;;;;;5094791;28;20020;-60
2021/04/01 09:38:02;;;;;;;32.15;29.77;;;18.60;99.90;;;;;;5094569;28;20047;-60
2021/04/01 09:40:32;;;;;;;32.03;29.58;;;18.50;99.90;;;;;;5094525;28;20075;-60
2021/04/01 09:43:20;;;;;;;31.63;29.45;;;18.50;99.90;;;;;;5094576;28;20032;-59
2021/04/01 09:45:53;;;;;;;31.95;29.73;;;18.50;99.90;;;;;;5094534;28;20020;-59
2021/04/01 09:48:30;;;;;;;32.50;30.38;;;18.40;99.90;;;;;;5094536;28;20503;-59
2021/04/01 09:51:00;;;;;;;31.77;29.48;;;18.40;99.90;;;;;;5094454;28;20017;-60
2021/04/01 09:53:30;;;;;;;32.35;29.90;;;18.40;99.90;;;;;;5094379;28;20091;-60
2021/04/01 09:55:58;;;;;;;36.40;34.00;;;18.30;99.90;;;;;;5094199;28;20020;-60
2021/04/01 09:58:47;;;;;;;33.63;31.23;;;18.30;99.90;;;;;;5094390;28;20094;-61
2021/04/01 10:01:33;;;;;;;34.08;31.67;;;18.30;99.90;;;;;;5094053;28;20028;-58
2021/04/01 10:04:10;;;;;;;33.90;31.40;;;18.30;99.90;;;;;;5092936;28;20036;-61
2021/04/01 10:06:46;;;;;;;33.75;31.35;;;18.30;99.90;;;;;;5094093;28;20049;-59
2021/04/01 10:09:22;;;;;;;34.22;31.67;;;18.30;99.90;;;;;;5094391;28;20056;-60
2021/04/01 10:12:03;;;;;;;34.67;32.08;;;18.30;99.90;;;;;;5092775;28;20031;-59
2021/04/01 10:14:31;;;;;;;34.15;31.45;;;18.30;99.90;;;;;;5094139;28;20025;-59
2021/04/01 10:17:17;;;;;;;34.10;31.50;;;18.30;99.90;;;;;;5094111;28;20477;-58
2021/04/01 10:19:54;;;;;;;35.08;32.53;;;18.20;99.90;;;;;;5094561;28;20027;-60
2021/04/01 10:22:30;;;;;;;35.08;32.13;;;18.10;99.90;;;;;;5093818;28;20032;-60
2021/04/01 10:30:20;;;;;;;37.25;34.28;;;18.10;99.90;;;;;;5093733;28;20012;-58
2021/04/01 10:33:04;;;;;;;37.13;34.10;;;18.10;99.90;;;;;;5093656;28;20025;-60
2021/04/01 10:35:38;;;;;;;37.30;34.15;;;18.10;99.90;;;;;;5093756;28;20020;-59
2021/04/01 10:38:06;;;;;;;37.50;34.65;;;18.00;99.90;;;;;;5092361;28;20028;-59
2021/04/01 10:40:35;;;;;;;37.85;34.85;;;18.00;99.90;;;;;;5093447;28;20485;-59
2021/04/01 10:43:06;;;;;;;36.28;33.58;;;17.90;99.90;;;;;;5093521;28;20477;-58
2021/04/01 10:45:43;;;;;;;36.83;34.13;;;17.90;99.90;;;;;;5094259;28;20414;-60
2021/04/01 10:48:26;;;;;;;37.45;34.67;;;17.90;99.90;;;;;;5092126;28;20028;-60
2021/04/01 10:51:00;;;;;;;36.40;33.72;;;17.80;99.90;;;;;;5094207;28;20053;-58
2021/04/01 10:53:27;;;;;;;59.97;53.55;;;17.80;99.90;;;;;;5093491;28;20020;-59
2021/04/01 10:56:04;;;;;;;73.57;68.72;;;17.80;99.90;;;;;;5093495;28;20031;-59
2021/04/01 10:58:32;;;;;;;88.22;83.50;;;17.80;99.90;;;;;;5093692;28;20020;-60
2021/04/01 11:01:01;;;;;;;41.38;38.35;;;17.70;99.90;;;;;;5093353;28;20035;-60
2021/04/01 11:03:43;;;;;;;79.20;74.72;;;17.70;99.90;;;;;;5093405;28;20020;-60
2021/04/01 11:06:13;;;;;;;75.85;71.65;;;17.70;99.90;;;;;;5093693;28;20049;-59
2021/04/01 11:08:43;;;;;;;75.97;71.72;;;17.70;99.90;;;;;;5093229;28;20051;-60
2021/04/01 11:11:14;;;;;;;74.93;70.53;;;17.70;99.90;;;;;;5093309;28;20072;-59
2021/04/01 11:13:46;;;;;;;75.25;71.05;;;17.70;99.90;;;;;;5093565;28;20264;-59
2021/04/01 11:16:15;;;;;;;74.68;70.28;;;17.70;99.90;;;;;;5093193;28;20024;-60
2021/04/01 11:18:52;;;;;;;75.13;70.55;;;17.70;99.90;;;;;;5093617;28;20478;-59
2021/04/01 11:21:21;;;;;;;75.90;71.35;;;17.70;99.90;;;;;;5093913;28;20103;-59
2021/04/01 11:23:48;;;;;;;76.80;72.32;;;17.60;99.90;;;;;;5092141;28;20435;-60
2021/04/01 11:26:16;;;;;;;78.72;74.22;;;17.60;99.90;;;;;;5094496;28;20044;-58
2021/04/01 11:28:50;;;;;;;77.65;73.00;;;17.60;99.90;;;;;;5097106;28;20024;-58
2021/04/01 11:31:23;;;;;;;78.00;73.40;;;17.50;99.90;;;;;;5096014;28;20377;-60
2021/04/01 11:33:53;;;;;;;79.20;74.55;;;17.50;99.90;;;;;;5097352;28;20020;-58
2021/04/01 11:36:22;;;;;;;77.87;73.30;;;17.50;99.90;;;;;;5097258;28;20067;-58
2021/04/01 11:39:11;;;;;;;76.70;72.20;;;17.40;99.90;;;;;;5096955;28;20047;-58
2021/04/01 11:41:48;;;;;;;77.57;73.18;;;17.40;99.90;;;;;;5097070;28;20138;-57
2021/04/01 11:44:18;;;;;;;80.75;75.82;;;17.50;99.90;;;;;;5095838;28;20039;-60
2021/04/01 11:46:46;;;;;;;80.63;75.63;;;17.50;99.90;;;;;;5097008;28;20111;-60
2021/04/01 11:49:13;;;;;;;78.45;73.80;;;17.50;99.90;;;;;;5096958;28;20024;-59
2021/04/01 11:51:41;;;;;;;82.53;77.85;;;17.50;99.90;;;;;;5096991;28;20033;-59
2021/04/01 11:54:11;;;;;;;82.60;78.05;;;17.50;99.90;;;;;;5096905;28;20039;-58
2021/04/01 11:56:44;;;;;;;86.72;81.80;;;17.50;99.90;;;;;;5095686;28;20028;-59
2021/04/01 11:59:22;;;;;;;85.93;80.88;;;17.50;99.90;;;;;;5096818;28;20107;-60
2021/04/01 12:01:52;;;;;;;84.05;79.10;;;17.50;99.90;;;;;;5096699;28;20020;-60
2021/04/01 12:04:22;;;;;;;85.63;80.57;;;17.50;99.90;;;;;;5096474;28;20024;-58
2021/04/01 12:06:50;;;;;;;83.45;78.60;;;17.50;99.90;;;;;;5096702;28;20016;-59
2021/04/01 12:09:17;;;;;;;83.60;78.82;;;17.50;99.90;;;;;;5096376;28;20542;-60
2021/04/01 12:11:46;;;;;;;86.03;80.72;;;17.50;99.90;;;;;;5096396;28;20472;-60
2021/04/01 12:14:18;;;;;;;85.53;80.40;;;17.50;99.90;;;;;;5096526;28;20016;-60
2021/04/01 12:16:46;;;;;;;86.95;81.85;;;17.50;99.90;;;;;;5096204;28;20024;-59
2021/04/01 12:19:15;;;;;;;82.78;78.13;;;17.50;99.90;;;;;;5096660;28;20095;-58
2021/04/01 12:21:43;;;;;;;89.93;84.93;;;17.50;99.90;;;;;;5096295;28;20020;-58
2021/04/01 12:24:10;;;;;;;87.53;82.43;;;17.50;99.90;;;;;;5094621;28;20028;-59
2021/04/01 12:26:46;;;;;;;87.32;82.35;;;17.50;99.90;;;;;;5096167;28;20032;-60
2021/04/01 12:29:14;;;;;;;89.70;84.43;;;17.50;99.90;;;;;;5096202;28;20085;-57
2021/04/01 12:31:46;;;;;;;89.32;84.22;;;17.50;99.90;;;;;;5096174;28;20504;-59
2021/04/01 12:34:29;;;;;;;85.95;81.05;;;17.50;99.90;;;;;;5095958;28;20107;-56
2021/04/01 12:37:04;;;;;;;87.57;82.47;;;17.50;99.90;;;;;;5096389;28;20358;-60
2021/04/01 12:39:38;;;;;;;87.10;81.90;;;17.50;99.90;;;;;;5095718;28;20059;-57
2021/04/01 12:42:06;;;;;;;82.50;77.88;;;17.40;99.90;;;;;;5096297;28;20024;-59
2021/04/01 12:44:40;;;;;;;85.57;80.65;;;17.40;99.90;;;;;;5096204;28;20024;-58
2021/04/01 12:47:08;;;;;;;85.30;80.30;;;17.40;99.90;;;;;;5095883;28;20067;-58
2021/04/01 12:49:37;;;;;;;86.00;80.95;;;17.40;99.90;;;;;;5095828;28;20358;-60
2021/04/01 12:52:06;;;;;;;82.50;77.78;;;17.40;99.90;;;;;;5095894;28;20130;-60
2021/04/01 12:54:39;;;;;;;84.35;79.47;;;17.40;99.90;;;;;;5095610;28;20388;-58
2021/04/01 12:57:12;;;;;;;84.95;79.88;;;17.40;99.90;;;;;;5095669;28;20036;-57
2021/04/01 12:59:49;;;;;;;84.78;79.97;;;17.50;99.90;;;;;;5095594;28;20024;-58
2021/04/01 13:02:19;;;;;;;90.72;85.63;;;17.50;99.90;;;;;;5096084;28;20161;-58
2021/04/01 13:04:56;;;;;;;94.27;89.17;;;17.60;99.90;;;;;;5095604;28;20036;-59
2021/04/01 13:07:28;;;;;;;95.32;89.97;;;17.70;99.90;;;;;;5094115;28;20288;-56
2021/04/01 13:10:31;;;;;;;95.20;90.10;;;17.70;99.90;;;;;;5095358;28;20050;-59
2021/04/01 13:12:48;;;;;;;94.13;89.05;;;17.80;99.90;;;;;;5095189;28;20085;-59
2021/04/01 13:15:18;;;;;;;88.65;83.72;;;17.90;99.90;;;;;;5095393;28;20023;-59
2021/04/01 13:17:45;;;;;;;89.40;84.40;;;17.90;99.90;;;;;;5095541;28;20103;-58
2021/04/01 13:20:17;;;;;;;88.05;83.20;;;17.90;99.90;;;;;;5095152;28;20020;-57
2021/04/01 13:23:07;;;;;;;90.28;85.57;;;18.00;99.90;;;;;;5095224;28;20100;-57
2021/04/01 13:25:35;;;;;;;88.38;83.78;;;18.00;99.90;;;;;;5094051;28;20032;-58
2021/04/01 13:28:09;;;;;;;85.53;80.72;;;18.00;99.90;;;;;;5094913;28;20550;-59
2021/04/01 13:30:37;;;;;;;83.90;79.10;;;18.00;99.90;;;;;;5095013;28;20470;-59
2021/04/01 13:33:14;;;;;;;84.53;79.90;;;18.10;99.90;;;;;;5094939;28;20055;-58
2021/04/01 13:35:57;;;;;;;82.50;77.90;;;18.10;99.90;;;;;;5094934;28;20028;-59
2021/04/01 13:38:27;;;;;;;84.53;79.57;;;18.10;99.90;;;;;;5094921;28;20016;-59
2021/04/01 13:40:55;;;;;;;86.63;81.75;;;18.00;99.90;;;;;;5094698;28;20135;-58
2021/04/01 13:43:28;;;;;;;83.10;78.30;;;18.10;99.90;;;;;;5095290;28;20039;-58
2021/04/01 13:45:56;;;;;;;86.07;81.20;;;18.00;99.90;;;;;;5095083;28;20016;-58
2021/04/01 13:48:27;;;;;;;85.22;80.43;;;18.00;99.90;;;;;;5094208;28;20077;-59
2021/04/01 13:51:13;;;;;;;88.03;83.03;;;18.10;99.90;;;;;;5094539;28;20054;-59
2021/04/01 13:53:51;;;;;;;85.88;80.88;;;18.10;99.90;;;;;;5094848;28;20077;-58
2021/04/01 13:56:26;;;;;;;90.78;85.65;;;18.10;99.90;;;;;;5093393;28;20074;-58
2021/04/01 13:59:14;;;;;;;90.25;85.13;;;18.10;99.90;;;;;;5095210;28;20035;-58
2021/04/01 14:08:56;;;;;;;86.20;81.20;;;18.20;99.90;;;;;;5094471;28;20027;-59
2021/04/01 14:10:08;;;;;;;86.03;81.32;;;18.40;99.90;;;;;;5094932;28;20051;-58
2021/04/01 14:12:36;;;;;;;85.70;80.80;;;18.40;99.90;;;;;;5094829;28;20103;-58
2021/04/01 14:15:06;;;;;;;88.15;82.93;;;18.40;99.90;;;;;;5094094;28;20507;-60
2021/04/01 14:17:36;;;;;;;85.93;80.78;;;18.50;99.90;;;;;;5094856;28;20024;-57
2021/04/01 14:20:11;;;;;;;84.35;79.60;;;18.50;99.90;;;;;;5092813;28;20420;-59
2021/04/01 14:22:41;;;;;;;83.28;77.95;;;18.50;99.90;;;;;;5094437;28;20032;-58
2021/04/01 14:25:19;;;;;;;85.18;80.35;;;18.50;99.90;;;;;;5094324;28;20047;-58
2021/04/01 14:27:50;;;;;;;86.38;81.53;;;18.50;99.90;;;;;;5093996;28;20020;-60
2021/04/01 14:30:23;;;;;;;89.30;84.07;;;18.40;99.90;;;;;;5093771;28;20358;-59
2021/04/01 14:32:51;;;;;;;88.28;83.25;;;18.40;99.90;;;;;;5093816;28;20103;-58
2021/04/01 14:35:21;;;;;;;89.28;84.05;;;18.30;99.90;;;;;;5093953;28;20044;-59
2021/04/01 14:37:49;;;;;;;87.75;82.85;;;18.30;99.90;;;;;;5094416;28;20020;-57
2021/04/01 14:40:17;;;;;;;89.35;84.45;;;18.20;99.90;;;;;;5093437;28;20066;-61
2021/04/01 14:42:51;;;;;;;91.07;85.70;;;18.20;99.90;;;;;;5093647;28;20027;-57
2021/04/01 14:45:18;;;;;;;87.35;82.38;;;18.10;99.90;;;;;;5093951;28;20114;-58